sensor_id;sensor_type;location;lat;lon;timestamp;P1;durP1;ratioP1;P2;durP2;ratioP2
58414;SDS011;44210;42.706;18.344;2023-12-22T00:00:06;6.70;;;4.63;;
58414;SDS011;44210;42.706;18.344;2023-12-22T00:02:33;6.47;;;4.10;;
58414;SDS011;44210;42.706;18.344;2023-12-22T00:04:59;7.25;;;4.97;;
58414;SDS011;44210;42.706;18.344;2023-12-22T00:07:25;7.93;;;5.68;;
58414;SDS011;44210;42.706;18.344;2023-12-22T00:09:51;8.10;;;5.53;;
58414;SDS011;44210;42.706;18.344;2023-12-22T00:12:17;8.63;;;6.43;;
58414;SDS011;44210;42.706;18.344;2023-12-22T00:14:43;7.50;;;5.25;;
58414;SDS011;44210;42.706;18.344;2023-12-22T00:17:09;8.02;;;5.63;;
58414;SDS011;44210;42.706;18.344;2023-12-22T00:19:36;7.28;;;4.85;;
58414;SDS011;44210;42.706;18.344;2023-12-22T00:22:02;5.97;;;4.07;;
58414;SDS011;44210;42.706;18.344;2023-12-22T00:24:28;6.00;;;4.63;;
58414;SDS011;44210;42.706;18.344;2023-12-22T00:26:54;5.30;;;3.90;;
58414;SDS011;44210;42.706;18.344;2023-12-22T00:29:20;5.10;;;3.78;;
58414;SDS011;44210;42.706;18.344;2023-12-22T00:31:47;6.63;;;4.55;;
58414;SDS011;44210;42.706;18.344;2023-12-22T00:34:13;6.03;;;4.30;;
58414;SDS011;44210;42.706;18.344;2023-12-22T00:36:39;5.57;;;4.38;;
58414;SDS011;44210;42.706;18.344;2023-12-22T00:39:05;5.93;;;4.32;;
58414;SDS011;44210;42.706;18.344;2023-12-22T00:41:32;8.35;;;4.60;;
58414;SDS011;44210;42.706;18.344;2023-12-22T00:43:58;6.82;;;4.80;;
58414;SDS011;44210;42.706;18.344;2023-12-22T00:46:24;6.75;;;5.03;;
58414;SDS011;44210;42.706;18.344;2023-12-22T00:48:50;8.52;;;5.78;;
58414;SDS011;44210;42.706;18.344;2023-12-22T00:51:16;9.27;;;4.88;;
58414;SDS011;44210;42.706;18.344;2023-12-22T00:53:42;7.93;;;5.10;;
58414;SDS011;44210;42.706;18.344;2023-12-22T00:56:08;7.00;;;4.70;;
58414;SDS011;44210;42.706;18.344;2023-12-22T00:58:37;8.07;;;4.80;;
58414;SDS011;44210;42.706;18.344;2023-12-22T01:01:04;5.45;;;4.18;;
58414;SDS011;44210;42.706;18.344;2023-12-22T01:03:30;6.70;;;4.30;;
58414;SDS011;44210;42.706;18.344;2023-12-22T01:06:00;7.22;;;4.25;;
58414;SDS011;44210;42.706;18.344;2023-12-22T01:08:26;10.32;;;4.63;;
58414;SDS011;44210;42.706;18.344;2023-12-22T01:10:52;6.50;;;4.35;;
58414;SDS011;44210;42.706;18.344;2023-12-22T01:13:18;8.73;;;3.92;;
58414;SDS011;44210;42.706;18.344;2023-12-22T01:15:44;6.07;;;3.83;;
58414;SDS011;44210;42.706;18.344;2023-12-22T01:18:10;6.25;;;3.67;;
58414;SDS011;44210;42.706;18.344;2023-12-22T01:20:37;5.20;;;3.53;;
58414;SDS011;44210;42.706;18.344;2023-12-22T01:23:03;6.07;;;4.10;;
58414;SDS011;44210;42.706;18.344;2023-12-22T01:25:29;5.43;;;3.80;;
58414;SDS011;44210;42.706;18.344;2023-12-22T01:27:55;5.00;;;4.15;;
58414;SDS011;44210;42.706;18.344;2023-12-22T01:30:21;10.38;;;4.80;;
58414;SDS011;44210;42.706;18.344;2023-12-22T01:32:47;5.88;;;3.95;;
58414;SDS011;44210;42.706;18.344;2023-12-22T01:35:13;9.55;;;4.70;;
58414;SDS011;44210;42.706;18.344;2023-12-22T01:37:39;6.47;;;4.78;;
58414;SDS011;44210;42.706;18.344;2023-12-22T01:40:07;7.53;;;4.45;;
58414;SDS011;44210;42.706;18.344;2023-12-22T01:42:33;5.25;;;4.10;;
58414;SDS011;44210;42.706;18.344;2023-12-22T01:44:59;6.40;;;4.55;;
58414;SDS011;44210;42.706;18.344;2023-12-22T01:47:25;5.72;;;4.70;;
58414;SDS011;44210;42.706;18.344;2023-12-22T01:49:52;5.35;;;3.80;;
58414;SDS011;44210;42.706;18.344;2023-12-22T01:52:18;5.05;;;3.78;;
58414;SDS011;44210;42.706;18.344;2023-12-22T01:54:44;4.80;;;3.83;;
58414;SDS011;44210;42.706;18.344;2023-12-22T01:57:12;5.57;;;4.07;;
58414;SDS011;44210;42.706;18.344;2023-12-22T01:59:40;6.53;;;4.22;;
58414;SDS011;44210;42.706;18.344;2023-12-22T02:02:06;6.85;;;4.40;;
58414;SDS011;44210;42.706;18.344;2023-12-22T02:04:32;6.88;;;4.22;;
58414;SDS011;44210;42.706;18.344;2023-12-22T02:06:58;5.15;;;4.05;;
58414;SDS011;44210;42.706;18.344;2023-12-22T02:09:26;7.38;;;4.75;;
58414;SDS011;44210;42.706;18.344;2023-12-22T02:11:52;7.75;;;4.53;;
58414;SDS011;44210;42.706;18.344;2023-12-22T02:14:19;5.57;;;4.18;;
58414;SDS011;44210;42.706;18.344;2023-12-22T02:16:46;5.47;;;4.13;;
58414;SDS011;44210;42.706;18.344;2023-12-22T02:22:00;4.45;;;3.88;;
58414;SDS011;44210;42.706;18.344;2023-12-22T02:24:26;6.20;;;3.80;;
58414;SDS011;44210;42.706;18.344;2023-12-22T02:26:53;6.15;;;4.60;;
58414;SDS011;44210;42.706;18.344;2023-12-22T02:29:21;5.13;;;4.33;;
58414;SDS011;44210;42.706;18.344;2023-12-22T02:31:48;4.85;;;4.00;;
58414;SDS011;44210;42.706;18.344;2023-12-22T02:34:18;4.00;;;3.28;;
58414;SDS011;44210;42.706;18.344;2023-12-22T02:36:45;5.57;;;4.15;;
58414;SDS011;44210;42.706;18.344;2023-12-22T02:39:12;5.45;;;3.95;;
58414;SDS011;44210;42.706;18.344;2023-12-22T02:41:39;4.78;;;3.83;;
58414;SDS011;44210;42.706;18.344;2023-12-22T02:44:06;5.65;;;4.60;;
58414;SDS011;44210;42.706;18.344;2023-12-22T02:46:33;4.85;;;3.65;;
58414;SDS011;44210;42.706;18.344;2023-12-22T02:49:00;5.18;;;4.13;;
58414;SDS011;44210;42.706;18.344;2023-12-22T02:51:26;4.88;;;3.97;;
58414;SDS011;44210;42.706;18.344;2023-12-22T02:53:52;5.10;;;3.42;;
58414;SDS011;44210;42.706;18.344;2023-12-22T02:56:18;8.48;;;4.50;;
58414;SDS011;44210;42.706;18.344;2023-12-22T02:58:44;6.57;;;4.13;;
58414;SDS011;44210;42.706;18.344;2023-12-22T03:01:10;6.03;;;3.88;;
58414;SDS011;44210;42.706;18.344;2023-12-22T03:03:36;6.65;;;3.67;;
58414;SDS011;44210;42.706;18.344;2023-12-22T03:06:03;6.75;;;4.53;;
58414;SDS011;44210;42.706;18.344;2023-12-22T03:08:29;5.75;;;4.70;;
58414;SDS011;44210;42.706;18.344;2023-12-22T03:10:55;7.45;;;4.82;;
58414;SDS011;44210;42.706;18.344;2023-12-22T03:13:21;7.20;;;5.05;;
58414;SDS011;44210;42.706;18.344;2023-12-22T03:15:47;6.03;;;4.63;;
58414;SDS011;44210;42.706;18.344;2023-12-22T03:18:13;5.22;;;4.22;;
58414;SDS011;44210;42.706;18.344;2023-12-22T03:20:39;6.55;;;4.57;;
58414;SDS011;44210;42.706;18.344;2023-12-22T03:23:05;5.53;;;4.10;;
58414;SDS011;44210;42.706;18.344;2023-12-22T03:25:31;5.60;;;4.40;;
58414;SDS011;44210;42.706;18.344;2023-12-22T03:27:57;5.28;;;4.22;;
58414;SDS011;44210;42.706;18.344;2023-12-22T03:30:23;5.03;;;4.28;;
58414;SDS011;44210;42.706;18.344;2023-12-22T03:32:49;5.45;;;4.20;;
58414;SDS011;44210;42.706;18.344;2023-12-22T03:35:16;7.57;;;4.60;;
58414;SDS011;44210;42.706;18.344;2023-12-22T03:37:42;5.03;;;4.13;;
58414;SDS011;44210;42.706;18.344;2023-12-22T03:40:08;8.10;;;5.22;;
58414;SDS011;44210;42.706;18.344;2023-12-22T03:42:34;5.63;;;4.53;;
58414;SDS011;44210;42.706;18.344;2023-12-22T03:45:01;7.03;;;4.97;;
58414;SDS011;44210;42.706;18.344;2023-12-22T03:47:27;6.22;;;4.72;;
58414;SDS011;44210;42.706;18.344;2023-12-22T03:49:53;6.38;;;5.30;;
58414;SDS011;44210;42.706;18.344;2023-12-22T03:52:19;6.90;;;5.72;;
58414;SDS011;44210;42.706;18.344;2023-12-22T03:54:45;6.38;;;5.50;;
58414;SDS011;44210;42.706;18.344;2023-12-22T03:57:11;5.57;;;4.95;;
58414;SDS011;44210;42.706;18.344;2023-12-22T03:59:37;6.57;;;5.88;;
58414;SDS011;44210;42.706;18.344;2023-12-22T04:02:03;6.18;;;4.50;;
58414;SDS011;44210;42.706;18.344;2023-12-22T04:04:29;5.95;;;4.28;;
58414;SDS011;44210;42.706;18.344;2023-12-22T04:06:56;6.32;;;5.10;;
58414;SDS011;44210;42.706;18.344;2023-12-22T04:09:22;6.00;;;4.97;;
58414;SDS011;44210;42.706;18.344;2023-12-22T04:11:48;5.30;;;4.22;;
58414;SDS011;44210;42.706;18.344;2023-12-22T04:14:14;5.15;;;4.28;;
58414;SDS011;44210;42.706;18.344;2023-12-22T04:16:41;7.18;;;4.25;;
58414;SDS011;44210;42.706;18.344;2023-12-22T04:19:07;4.80;;;4.28;;
58414;SDS011;44210;42.706;18.344;2023-12-22T04:21:33;7.57;;;4.50;;
58414;SDS011;44210;42.706;18.344;2023-12-22T04:23:59;7.13;;;4.78;;
58414;SDS011;44210;42.706;18.344;2023-12-22T04:26:25;7.55;;;5.00;;
58414;SDS011;44210;42.706;18.344;2023-12-22T04:28:51;5.90;;;4.53;;
58414;SDS011;44210;42.706;18.344;2023-12-22T04:31:17;6.57;;;4.93;;
58414;SDS011;44210;42.706;18.344;2023-12-22T04:33:43;6.30;;;4.75;;
58414;SDS011;44210;42.706;18.344;2023-12-22T04:36:10;5.85;;;4.65;;
58414;SDS011;44210;42.706;18.344;2023-12-22T04:38:36;5.82;;;4.40;;
58414;SDS011;44210;42.706;18.344;2023-12-22T04:41:02;6.38;;;4.38;;
58414;SDS011;44210;42.706;18.344;2023-12-22T04:43:28;5.97;;;4.95;;
58414;SDS011;44210;42.706;18.344;2023-12-22T04:45:54;6.55;;;5.30;;
58414;SDS011;44210;42.706;18.344;2023-12-22T04:48:20;7.20;;;5.35;;
58414;SDS011;44210;42.706;18.344;2023-12-22T04:50:46;6.20;;;5.47;;
58414;SDS011;44210;42.706;18.344;2023-12-22T04:53:12;7.30;;;6.53;;
58414;SDS011;44210;42.706;18.344;2023-12-22T04:55:38;7.22;;;6.22;;
58414;SDS011;44210;42.706;18.344;2023-12-22T04:58:04;7.03;;;5.45;;
58414;SDS011;44210;42.706;18.344;2023-12-22T05:00:30;7.78;;;5.80;;
58414;SDS011;44210;42.706;18.344;2023-12-22T05:02:57;8.20;;;6.30;;
58414;SDS011;44210;42.706;18.344;2023-12-22T05:05:23;7.88;;;5.93;;
58414;SDS011;44210;42.706;18.344;2023-12-22T05:07:49;6.75;;;5.07;;
58414;SDS011;44210;42.706;18.344;2023-12-22T05:10:15;6.85;;;5.43;;
58414;SDS011;44210;42.706;18.344;2023-12-22T05:12:41;6.45;;;5.20;;
58414;SDS011;44210;42.706;18.344;2023-12-22T05:15:07;6.78;;;4.88;;
58414;SDS011;44210;42.706;18.344;2023-12-22T05:17:33;8.20;;;6.38;;
58414;SDS011;44210;42.706;18.344;2023-12-22T05:19:59;7.22;;;5.97;;
58414;SDS011;44210;42.706;18.344;2023-12-22T05:22:25;8.35;;;6.25;;
58414;SDS011;44210;42.706;18.344;2023-12-22T05:24:54;8.27;;;5.88;;
58414;SDS011;44210;42.706;18.344;2023-12-22T05:27:21;9.10;;;6.28;;
58414;SDS011;44210;42.706;18.344;2023-12-22T05:29:47;8.05;;;6.10;;
58414;SDS011;44210;42.706;18.344;2023-12-22T05:32:13;7.57;;;6.05;;
58414;SDS011;44210;42.706;18.344;2023-12-22T05:34:39;8.07;;;7.28;;
58414;SDS011;44210;42.706;18.344;2023-12-22T05:37:05;7.10;;;6.30;;
58414;SDS011;44210;42.706;18.344;2023-12-22T05:39:31;9.18;;;8.00;;
58414;SDS011;44210;42.706;18.344;2023-12-22T05:41:57;9.52;;;8.57;;
58414;SDS011;44210;42.706;18.344;2023-12-22T05:44:23;7.97;;;6.57;;
58414;SDS011;44210;42.706;18.344;2023-12-22T05:46:54;7.00;;;6.03;;
58414;SDS011;44210;42.706;18.344;2023-12-22T05:49:20;8.40;;;5.78;;
58414;SDS011;44210;42.706;18.344;2023-12-22T05:51:46;9.52;;;7.20;;
58414;SDS011;44210;42.706;18.344;2023-12-22T05:54:12;7.70;;;6.63;;
58414;SDS011;44210;42.706;18.344;2023-12-22T05:56:39;7.75;;;6.22;;
58414;SDS011;44210;42.706;18.344;2023-12-22T05:59:05;7.68;;;5.88;;
58414;SDS011;44210;42.706;18.344;2023-12-22T06:01:31;7.20;;;5.28;;
58414;SDS011;44210;42.706;18.344;2023-12-22T06:03:57;8.38;;;6.82;;
58414;SDS011;44210;42.706;18.344;2023-12-22T06:06:23;8.65;;;7.75;;
58414;SDS011;44210;42.706;18.344;2023-12-22T06:08:49;9.15;;;7.82;;
58414;SDS011;44210;42.706;18.344;2023-12-22T06:11:15;10.88;;;9.15;;
58414;SDS011;44210;42.706;18.344;2023-12-22T06:13:41;12.00;;;8.18;;
58414;SDS011;44210;42.706;18.344;2023-12-22T06:16:16;13.13;;;10.30;;
58414;SDS011;44210;42.706;18.344;2023-12-22T06:18:43;12.13;;;9.77;;
58414;SDS011;44210;42.706;18.344;2023-12-22T06:21:09;10.88;;;9.20;;
58414;SDS011;44210;42.706;18.344;2023-12-22T06:23:36;15.90;;;13.43;;
58414;SDS011;44210;42.706;18.344;2023-12-22T06:26:07;21.13;;;16.50;;
58414;SDS011;44210;42.706;18.344;2023-12-22T06:28:34;29.33;;;24.37;;
58414;SDS011;44210;42.706;18.344;2023-12-22T06:31:01;30.63;;;23.42;;
58414;SDS011;44210;42.706;18.344;2023-12-22T06:33:28;12.27;;;10.48;;
58414;SDS011;44210;42.706;18.344;2023-12-22T06:35:54;11.20;;;9.80;;
58414;SDS011;44210;42.706;18.344;2023-12-22T06:38:20;13.27;;;10.45;;
58414;SDS011;44210;42.706;18.344;2023-12-22T06:40:46;17.20;;;15.40;;
58414;SDS011;44210;42.706;18.344;2023-12-22T06:43:12;14.70;;;11.27;;
58414;SDS011;44210;42.706;18.344;2023-12-22T06:45:39;15.13;;;11.27;;
58414;SDS011;44210;42.706;18.344;2023-12-22T06:48:06;16.83;;;14.40;;
58414;SDS011;44210;42.706;18.344;2023-12-22T06:50:32;21.70;;;16.17;;
58414;SDS011;44210;42.706;18.344;2023-12-22T06:52:58;15.07;;;12.93;;
58414;SDS011;44210;42.706;18.344;2023-12-22T06:55:24;18.52;;;13.40;;
58414;SDS011;44210;42.706;18.344;2023-12-22T06:57:51;18.27;;;12.95;;
58414;SDS011;44210;42.706;18.344;2023-12-22T07:00:17;14.18;;;11.88;;
58414;SDS011;44210;42.706;18.344;2023-12-22T07:02:43;16.73;;;13.38;;
58414;SDS011;44210;42.706;18.344;2023-12-22T07:07:36;22.33;;;16.35;;
58414;SDS011;44210;42.706;18.344;2023-12-22T07:10:02;25.30;;;16.85;;
58414;SDS011;44210;42.706;18.344;2023-12-22T07:12:30;24.90;;;17.90;;
58414;SDS011;44210;42.706;18.344;2023-12-22T07:14:56;36.97;;;28.40;;
58414;SDS011;44210;42.706;18.344;2023-12-22T07:17:22;37.25;;;27.55;;
58414;SDS011;44210;42.706;18.344;2023-12-22T07:19:48;40.40;;;26.52;;
58414;SDS011;44210;42.706;18.344;2023-12-22T07:22:17;33.40;;;25.30;;
58414;SDS011;44210;42.706;18.344;2023-12-22T07:24:43;36.33;;;25.48;;
58414;SDS011;44210;42.706;18.344;2023-12-22T07:27:09;39.67;;;27.92;;
58414;SDS011;44210;42.706;18.344;2023-12-22T07:29:35;144.88;;;88.82;;
58414;SDS011;44210;42.706;18.344;2023-12-22T07:32:01;54.75;;;39.05;;
58414;SDS011;44210;42.706;18.344;2023-12-22T07:34:27;44.80;;;32.72;;
58414;SDS011;44210;42.706;18.344;2023-12-22T07:36:53;45.13;;;30.83;;
58414;SDS011;44210;42.706;18.344;2023-12-22T07:39:20;39.90;;;30.45;;
58414;SDS011;44210;42.706;18.344;2023-12-22T07:41:47;28.33;;;23.05;;
58414;SDS011;44210;42.706;18.344;2023-12-22T07:44:13;37.33;;;27.65;;
58414;SDS011;44210;42.706;18.344;2023-12-22T07:46:39;37.58;;;31.98;;
58414;SDS011;44210;42.706;18.344;2023-12-22T07:49:05;37.20;;;29.88;;
58414;SDS011;44210;42.706;18.344;2023-12-22T07:51:31;28.38;;;21.02;;
58414;SDS011;44210;42.706;18.344;2023-12-22T07:53:58;21.58;;;15.10;;
58414;SDS011;44210;42.706;18.344;2023-12-22T07:56:24;19.58;;;14.43;;
58414;SDS011;44210;42.706;18.344;2023-12-22T07:58:50;20.92;;;14.82;;
58414;SDS011;44210;42.706;18.344;2023-12-22T08:01:16;17.70;;;13.73;;
58414;SDS011;44210;42.706;18.344;2023-12-22T08:03:42;22.85;;;16.67;;
58414;SDS011;44210;42.706;18.344;2023-12-22T08:06:08;19.15;;;15.65;;
58414;SDS011;44210;42.706;18.344;2023-12-22T08:08:34;16.65;;;12.63;;
58414;SDS011;44210;42.706;18.344;2023-12-22T08:11:01;18.80;;;14.10;;
58414;SDS011;44210;42.706;18.344;2023-12-22T08:13:27;19.33;;;13.50;;
58414;SDS011;44210;42.706;18.344;2023-12-22T08:15:53;12.77;;;10.65;;
58414;SDS011;44210;42.706;18.344;2023-12-22T08:18:19;13.40;;;12.00;;
58414;SDS011;44210;42.706;18.344;2023-12-22T08:20:45;27.75;;;18.33;;
58414;SDS011;44210;42.706;18.344;2023-12-22T08:23:14;25.00;;;18.17;;
58414;SDS011;44210;42.706;18.344;2023-12-22T08:25:40;17.60;;;13.13;;
58414;SDS011;44210;42.706;18.344;2023-12-22T08:28:06;17.38;;;14.48;;
58414;SDS011;44210;42.706;18.344;2023-12-22T08:30:33;17.60;;;15.15;;
58414;SDS011;44210;42.706;18.344;2023-12-22T08:32:59;29.33;;;22.38;;
58414;SDS011;44210;42.706;18.344;2023-12-22T08:35:25;30.65;;;23.80;;
58414;SDS011;44210;42.706;18.344;2023-12-22T08:37:51;31.13;;;22.55;;
58414;SDS011;44210;42.706;18.344;2023-12-22T08:40:17;22.90;;;18.35;;
58414;SDS011;44210;42.706;18.344;2023-12-22T08:42:50;23.17;;;15.52;;
58414;SDS011;44210;42.706;18.344;2023-12-22T08:45:19;20.25;;;17.90;;
58414;SDS011;44210;42.706;18.344;2023-12-22T08:47:46;16.73;;;15.05;;
58414;SDS011;44210;42.706;18.344;2023-12-22T08:50:12;18.40;;;13.07;;
58414;SDS011;44210;42.706;18.344;2023-12-22T08:52:38;18.67;;;13.82;;
58414;SDS011;44210;42.706;18.344;2023-12-22T08:55:04;21.05;;;17.10;;
58414;SDS011;44210;42.706;18.344;2023-12-22T08:57:30;24.10;;;21.48;;
58414;SDS011;44210;42.706;18.344;2023-12-22T08:59:57;50.47;;;39.15;;
58414;SDS011;44210;42.706;18.344;2023-12-22T09:02:23;39.60;;;26.58;;
58414;SDS011;44210;42.706;18.344;2023-12-22T09:04:49;32.85;;;24.05;;
58414;SDS011;44210;42.706;18.344;2023-12-22T09:07:16;27.75;;;24.80;;
58414;SDS011;44210;42.706;18.344;2023-12-22T09:09:42;21.67;;;18.23;;
58414;SDS011;44210;42.706;18.344;2023-12-22T09:12:08;31.83;;;25.80;;
58414;SDS011;44210;42.706;18.344;2023-12-22T09:14:34;27.15;;;20.02;;
58414;SDS011;44210;42.706;18.344;2023-12-22T09:17:00;22.35;;;16.60;;
58414;SDS011;44210;42.706;18.344;2023-12-22T09:19:26;24.10;;;20.02;;
58414;SDS011;44210;42.706;18.344;2023-12-22T09:21:52;22.10;;;18.70;;
58414;SDS011;44210;42.706;18.344;2023-12-22T09:24:18;21.52;;;15.77;;
58414;SDS011;44210;42.706;18.344;2023-12-22T09:26:44;17.90;;;16.00;;
58414;SDS011;44210;42.706;18.344;2023-12-22T09:29:10;27.50;;;20.30;;
58414;SDS011;44210;42.706;18.344;2023-12-22T09:31:36;30.00;;;22.42;;
58414;SDS011;44210;42.706;18.344;2023-12-22T09:34:03;30.58;;;23.60;;
58414;SDS011;44210;42.706;18.344;2023-12-22T09:36:29;33.85;;;27.33;;
58414;SDS011;44210;42.706;18.344;2023-12-22T09:38:55;35.50;;;26.20;;
58414;SDS011;44210;42.706;18.344;2023-12-22T09:41:21;39.83;;;29.33;;
58414;SDS011;44210;42.706;18.344;2023-12-22T09:43:47;31.08;;;25.33;;
58414;SDS011;44210;42.706;18.344;2023-12-22T09:46:15;28.80;;;21.77;;
58414;SDS011;44210;42.706;18.344;2023-12-22T09:48:43;28.63;;;22.58;;
58414;SDS011;44210;42.706;18.344;2023-12-22T09:51:09;29.95;;;22.48;;
58414;SDS011;44210;42.706;18.344;2023-12-22T09:53:37;28.95;;;22.73;;
58414;SDS011;44210;42.706;18.344;2023-12-22T09:56:04;27.00;;;23.30;;
58414;SDS011;44210;42.706;18.344;2023-12-22T09:58:30;27.83;;;22.73;;
58414;SDS011;44210;42.706;18.344;2023-12-22T10:00:57;27.30;;;22.88;;
58414;SDS011;44210;42.706;18.344;2023-12-22T10:03:23;22.13;;;18.95;;
58414;SDS011;44210;42.706;18.344;2023-12-22T10:05:51;18.92;;;15.27;;
58414;SDS011;44210;42.706;18.344;2023-12-22T10:08:17;18.33;;;16.38;;
58414;SDS011;44210;42.706;18.344;2023-12-22T10:10:45;18.70;;;16.70;;
58414;SDS011;44210;42.706;18.344;2023-12-22T10:13:12;21.38;;;19.02;;
58414;SDS011;44210;42.706;18.344;2023-12-22T10:15:39;22.00;;;19.70;;
58414;SDS011;44210;42.706;18.344;2023-12-22T10:18:11;22.73;;;20.45;;
58414;SDS011;44210;42.706;18.344;2023-12-22T10:20:38;26.13;;;21.85;;
58414;SDS011;44210;42.706;18.344;2023-12-22T10:23:04;24.63;;;20.92;;
58414;SDS011;44210;42.706;18.344;2023-12-22T10:25:30;23.42;;;19.65;;
58414;SDS011;44210;42.706;18.344;2023-12-22T10:27:57;18.27;;;16.40;;
58414;SDS011;44210;42.706;18.344;2023-12-22T10:30:24;16.45;;;14.77;;
58414;SDS011;44210;42.706;18.344;2023-12-22T10:32:51;17.55;;;15.65;;
58414;SDS011;44210;42.706;18.344;2023-12-22T10:35:17;19.95;;;15.43;;
58414;SDS011;44210;42.706;18.344;2023-12-22T10:37:45;16.90;;;15.10;;
58414;SDS011;44210;42.706;18.344;2023-12-22T10:40:12;19.30;;;15.30;;
58414;SDS011;44210;42.706;18.344;2023-12-22T10:42:42;17.63;;;14.40;;
58414;SDS011;44210;42.706;18.344;2023-12-22T10:45:08;18.10;;;14.07;;
58414;SDS011;44210;42.706;18.344;2023-12-22T10:47:34;14.93;;;11.95;;
58414;SDS011;44210;42.706;18.344;2023-12-22T10:50:04;15.10;;;12.82;;
58414;SDS011;44210;42.706;18.344;2023-12-22T10:52:30;18.60;;;13.13;;
58414;SDS011;44210;42.706;18.344;2023-12-22T10:54:59;19.30;;;13.95;;
58414;SDS011;44210;42.706;18.344;2023-12-22T10:57:28;17.42;;;13.98;;
58414;SDS011;44210;42.706;18.344;2023-12-22T10:59:55;13.30;;;11.77;;
58414;SDS011;44210;42.706;18.344;2023-12-22T11:02:26;17.58;;;13.00;;
58414;SDS011;44210;42.706;18.344;2023-12-22T11:07:20;36.47;;;30.42;;
58414;SDS011;44210;42.706;18.344;2023-12-22T11:09:50;38.53;;;26.90;;
58414;SDS011;44210;42.706;18.344;2023-12-22T11:12:17;37.25;;;33.10;;
58414;SDS011;44210;42.706;18.344;2023-12-22T11:14:43;26.45;;;23.40;;
58414;SDS011;44210;42.706;18.344;2023-12-22T11:17:09;31.73;;;23.10;;
58414;SDS011;44210;42.706;18.344;2023-12-22T11:19:36;19.10;;;11.80;;
58414;SDS011;44210;42.706;18.344;2023-12-22T11:22:04;18.17;;;12.07;;
58414;SDS011;44210;42.706;18.344;2023-12-22T11:24:32;17.08;;;11.20;;
58414;SDS011;44210;42.706;18.344;2023-12-22T11:26:59;15.50;;;11.90;;
58414;SDS011;44210;42.706;18.344;2023-12-22T11:29:26;15.20;;;10.18;;
58414;SDS011;44210;42.706;18.344;2023-12-22T11:31:52;17.40;;;10.23;;
58414;SDS011;44210;42.706;18.344;2023-12-22T11:34:23;15.30;;;9.15;;
58414;SDS011;44210;42.706;18.344;2023-12-22T11:36:49;14.90;;;8.35;;
58414;SDS011;44210;42.706;18.344;2023-12-22T11:39:16;11.38;;;8.10;;
58414;SDS011;44210;42.706;18.344;2023-12-22T11:41:42;14.15;;;7.55;;
58414;SDS011;44210;42.706;18.344;2023-12-22T11:44:09;12.50;;;6.90;;
58414;SDS011;44210;42.706;18.344;2023-12-22T11:46:35;11.82;;;6.20;;
58414;SDS011;44210;42.706;18.344;2023-12-22T11:49:01;9.77;;;6.88;;
58414;SDS011;44210;42.706;18.344;2023-12-22T11:51:31;12.98;;;7.10;;
58414;SDS011;44210;42.706;18.344;2023-12-22T11:53:59;13.85;;;6.40;;
58414;SDS011;44210;42.706;18.344;2023-12-22T11:56:26;14.45;;;6.90;;
58414;SDS011;44210;42.706;18.344;2023-12-22T11:58:52;18.48;;;7.47;;
58414;SDS011;44210;42.706;18.344;2023-12-22T12:01:24;9.50;;;6.93;;
58414;SDS011;44210;42.706;18.344;2023-12-22T12:03:51;18.13;;;12.27;;
58414;SDS011;44210;42.706;18.344;2023-12-22T12:08:56;28.23;;;14.63;;
58414;SDS011;44210;42.706;18.344;2023-12-22T12:11:22;15.43;;;10.45;;
58414;SDS011;44210;42.706;18.344;2023-12-22T12:13:49;12.40;;;8.43;;
58414;SDS011;44210;42.706;18.344;2023-12-22T12:16:19;14.93;;;10.60;;
58414;SDS011;44210;42.706;18.344;2023-12-22T12:18:49;18.35;;;10.80;;
58414;SDS011;44210;42.706;18.344;2023-12-22T12:21:18;14.13;;;9.30;;
58414;SDS011;44210;42.706;18.344;2023-12-22T12:23:44;17.33;;;9.00;;
58414;SDS011;44210;42.706;18.344;2023-12-22T12:26:10;10.80;;;8.10;;
58414;SDS011;44210;42.706;18.344;2023-12-22T12:28:38;12.32;;;7.38;;
58414;SDS011;44210;42.706;18.344;2023-12-22T12:31:05;13.50;;;7.82;;
58414;SDS011;44210;42.706;18.344;2023-12-22T12:33:31;13.25;;;7.25;;
58414;SDS011;44210;42.706;18.344;2023-12-22T12:36:00;10.80;;;6.00;;
58414;SDS011;44210;42.706;18.344;2023-12-22T12:41:04;20.50;;;11.50;;
58414;SDS011;44210;42.706;18.344;2023-12-22T12:43:31;11.27;;;7.90;;
58414;SDS011;44210;42.706;18.344;2023-12-22T12:46:04;12.85;;;7.57;;
58414;SDS011;44210;42.706;18.344;2023-12-22T12:48:30;9.70;;;6.10;;
58414;SDS011;44210;42.706;18.344;2023-12-22T12:51:06;16.60;;;5.75;;
58414;SDS011;44210;42.706;18.344;2023-12-22T12:53:32;15.27;;;6.45;;
58414;SDS011;44210;42.706;18.344;2023-12-22T12:55:59;16.90;;;11.23;;
58414;SDS011;44210;42.706;18.344;2023-12-22T12:58:32;11.02;;;6.25;;
58414;SDS011;44210;42.706;18.344;2023-12-22T13:01:07;8.80;;;6.22;;
58414;SDS011;44210;42.706;18.344;2023-12-22T13:03:53;13.68;;;6.15;;
58414;SDS011;44210;42.706;18.344;2023-12-22T13:06:19;9.85;;;6.95;;
58414;SDS011;44210;42.706;18.344;2023-12-22T13:08:49;16.52;;;7.18;;
58414;SDS011;44210;42.706;18.344;2023-12-22T13:11:16;13.93;;;6.53;;
58414;SDS011;44210;42.706;18.344;2023-12-22T13:13:45;9.20;;;5.40;;
58414;SDS011;44210;42.706;18.344;2023-12-22T13:16:11;12.27;;;6.18;;
58414;SDS011;44210;42.706;18.344;2023-12-22T13:18:37;11.48;;;5.55;;
58414;SDS011;44210;42.706;18.344;2023-12-22T13:21:04;10.57;;;5.88;;
58414;SDS011;44210;42.706;18.344;2023-12-22T13:23:30;13.30;;;4.93;;
58414;SDS011;44210;42.706;18.344;2023-12-22T13:25:57;18.83;;;6.35;;
58414;SDS011;44210;42.706;18.344;2023-12-22T13:28:26;7.53;;;4.68;;
58414;SDS011;44210;42.706;18.344;2023-12-22T13:30:53;9.95;;;5.68;;
58414;SDS011;44210;42.706;18.344;2023-12-22T13:33:19;14.82;;;8.15;;
58414;SDS011;44210;42.706;18.344;2023-12-22T13:35:45;16.33;;;11.95;;
58414;SDS011;44210;42.706;18.344;2023-12-22T13:38:12;23.23;;;8.90;;
58414;SDS011;44210;42.706;18.344;2023-12-22T13:40:38;18.23;;;7.10;;
58414;SDS011;44210;42.706;18.344;2023-12-22T13:43:04;14.25;;;6.40;;
58414;SDS011;44210;42.706;18.344;2023-12-22T13:45:32;12.48;;;5.75;;
58414;SDS011;44210;42.706;18.344;2023-12-22T13:47:58;10.50;;;5.47;;
58414;SDS011;44210;42.706;18.344;2023-12-22T13:50:24;9.65;;;5.65;;
58414;SDS011;44210;42.706;18.344;2023-12-22T13:52:50;8.75;;;5.40;;
58414;SDS011;44210;42.706;18.344;2023-12-22T13:55:17;11.05;;;5.93;;
58414;SDS011;44210;42.706;18.344;2023-12-22T13:57:44;11.02;;;6.03;;
58414;SDS011;44210;42.706;18.344;2023-12-22T14:02:42;9.70;;;5.22;;
58414;SDS011;44210;42.706;18.344;2023-12-22T14:05:08;10.05;;;5.00;;
58414;SDS011;44210;42.706;18.344;2023-12-22T14:07:35;8.00;;;4.85;;
58414;SDS011;44210;42.706;18.344;2023-12-22T14:10:07;6.75;;;4.97;;
58414;SDS011;44210;42.706;18.344;2023-12-22T14:12:34;12.15;;;5.72;;
58414;SDS011;44210;42.706;18.344;2023-12-22T14:15:00;13.32;;;5.00;;
58414;SDS011;44210;42.706;18.344;2023-12-22T14:17:26;7.43;;;5.20;;
58414;SDS011;44210;42.706;18.344;2023-12-22T14:19:52;10.02;;;5.55;;
58414;SDS011;44210;42.706;18.344;2023-12-22T14:22:18;11.73;;;5.90;;
58414;SDS011;44210;42.706;18.344;2023-12-22T14:24:44;8.05;;;5.70;;
58414;SDS011;44210;42.706;18.344;2023-12-22T14:27:10;10.15;;;7.35;;
58414;SDS011;44210;42.706;18.344;2023-12-22T14:29:39;30.55;;;21.58;;
58414;SDS011;44210;42.706;18.344;2023-12-22T14:32:06;21.95;;;13.48;;
58414;SDS011;44210;42.706;18.344;2023-12-22T14:34:37;28.08;;;18.48;;